createdAt,value
2018-03-22T00:01:27.275Z,39.50
2018-03-22T00:03:55.580Z,39.20
2018-03-22T00:06:24.604Z,38.70
2018-03-22T00:08:52.891Z,38.70
2018-03-22T00:11:21.195Z,39.40
2018-03-22T00:13:49.456Z,38.80
2018-03-22T00:16:17.730Z,40.00
2018-03-22T00:18:46.032Z,39.50
2018-03-22T00:21:14.347Z,39.90
2018-03-22T00:23:42.656Z,39.50
2018-03-22T00:26:10.981Z,39.20
2018-03-22T00:28:40.030Z,39.20
2018-03-22T00:31:08.291Z,39.20
2018-03-22T00:33:36.553Z,39.40
2018-03-22T00:36:04.845Z,39.40
2018-03-22T00:38:33.159Z,39.50
2018-03-22T00:41:01.453Z,39.70
2018-03-22T00:43:30.530Z,38.40
2018-03-22T00:45:58.842Z,38.40
2018-03-22T00:48:27.191Z,38.50
2018-03-22T00:50:55.432Z,39.20
2018-03-22T00:53:23.736Z,39.00
2018-03-22T00:55:52.007Z,39.40
2018-03-22T00:58:20.257Z,39.40
2018-03-22T01:00:48.572Z,39.20
2018-03-22T01:03:16.872Z,39.10
2018-03-22T01:05:45.961Z,39.80
2018-03-22T01:08:14.982Z,38.80
2018-03-22T01:10:44.058Z,38.80
2018-03-22T01:13:13.064Z,39.40
2018-03-22T01:15:41.339Z,39.40
2018-03-22T01:18:09.612Z,39.40
2018-03-22T01:20:37.892Z,39.80
2018-03-22T01:23:06.258Z,40.10
2018-03-22T01:25:34.572Z,40.70
2018-03-22T01:28:02.901Z,40.00
2018-03-22T01:30:39.547Z,40.90
2018-03-22T01:33:07.852Z,40.70
2018-03-22T01:35:36.924Z,41.50
2018-03-22T01:38:05.199Z,41.50
2018-03-22T01:40:33.497Z,41.20
2018-03-22T01:43:02.576Z,40.60
2018-03-22T01:45:30.818Z,40.60
2018-03-22T01:47:59.089Z,40.90
2018-03-22T01:50:27.343Z,41.50
2018-03-22T01:53:07.424Z,41.20
2018-03-22T01:55:35.679Z,41.90
2018-03-22T01:58:03.989Z,41.00
2018-03-22T02:00:32.250Z,40.80
2018-03-22T02:03:00.569Z,40.40
2018-03-22T02:05:28.882Z,41.20
2018-03-22T02:07:57.137Z,41.50
2018-03-22T02:10:26.205Z,42.40
2018-03-22T02:12:54.450Z,42.40
2018-03-22T02:15:22.756Z,42.00
2018-03-22T02:17:51.056Z,42.50
2018-03-22T02:20:20.150Z,41.40
2018-03-22T02:22:49.247Z,42.70
2018-03-22T02:25:18.332Z,42.10
2018-03-22T02:27:46.650Z,42.00
2018-03-22T02:30:14.939Z,41.90
2018-03-22T02:32:43.248Z,42.70
2018-03-22T02:35:11.542Z,42.90
2018-03-22T02:37:39.837Z,41.70
2018-03-22T02:40:08.853Z,42.00
2018-03-22T02:42:37.130Z,42.00
2018-03-22T02:45:05.389Z,42.20
2018-03-22T02:47:34.460Z,41.70
2018-03-22T02:50:02.727Z,41.70
2018-03-22T02:52:31.014Z,42.10
2018-03-22T02:54:59.302Z,41.90
2018-03-22T02:57:28.311Z,42.90
2018-03-22T02:59:56.621Z,42.90
2018-03-22T03:02:24.913Z,42.70
2018-03-22T03:04:53.234Z,42.40
2018-03-22T03:07:22.335Z,44.40
2018-03-22T03:09:50.674Z,44.30
2018-03-22T03:12:18.937Z,43.00
2018-03-22T03:14:47.286Z,42.20
2018-03-22T03:17:15.537Z,42.80
2018-03-22T03:19:43.851Z,42.60
2018-03-22T03:22:12.162Z,42.90
2018-03-22T03:24:40.493Z,41.80
2018-03-22T03:27:08.800Z,42.60
2018-03-22T03:29:37.055Z,41.70
2018-03-22T03:32:05.372Z,42.20
2018-03-22T03:34:33.643Z,42.70
2018-03-22T03:37:01.994Z,42.90
2018-03-22T03:39:30.302Z,42.70
2018-03-22T03:41:58.629Z,42.50
2018-03-22T03:44:26.936Z,42.40
2018-03-22T03:46:55.250Z,42.20
2018-03-22T03:49:23.572Z,42.60
2018-03-22T03:51:51.828Z,43.10
2018-03-22T03:54:20.146Z,42.70
2018-03-22T03:56:48.398Z,42.70
2018-03-22T03:59:16.710Z,42.90
2018-03-22T04:01:44.953Z,42.70
2018-03-22T04:04:13.226Z,42.80
2018-03-22T04:06:41.472Z,42.70
2018-03-22T04:09:10.536Z,43.40
2018-03-22T04:11:38.810Z,42.90
2018-03-22T04:14:07.138Z,42.30
2018-03-22T04:16:36.220Z,43.10
2018-03-22T04:19:05.301Z,43.20
2018-03-22T04:21:33.569Z,42.50
2018-03-22T04:24:01.879Z,42.30
2018-03-22T04:26:30.956Z,42.70
2018-03-22T04:28:59.254Z,42.60
2018-03-22T04:31:28.344Z,42.60
2018-03-22T04:33:57.383Z,42.70
2018-03-22T04:36:25.666Z,42.60
2018-03-22T04:38:54.743Z,42.80
2018-03-22T04:41:23.046Z,42.40
2018-03-22T04:43:51.335Z,43.00
2018-03-22T04:46:19.772Z,42.90
2018-03-22T04:48:48.020Z,42.90
2018-03-22T04:51:17.043Z,42.30
2018-03-22T04:53:45.351Z,42.30
2018-03-22T04:56:13.598Z,42.40
2018-03-22T04:58:41.873Z,42.70
2018-03-22T05:01:10.134Z,42.60
2018-03-22T05:03:38.445Z,42.60
2018-03-22T05:06:06.709Z,43.10
2018-03-22T05:08:35.058Z,42.50
2018-03-22T05:11:04.113Z,42.30
2018-03-22T05:13:32.431Z,42.30
2018-03-22T05:16:01.516Z,42.40
2018-03-22T05:18:29.786Z,42.40
2018-03-22T05:20:58.831Z,42.40
2018-03-22T05:23:27.087Z,42.30
2018-03-22T05:25:55.439Z,42.10
2018-03-22T05:28:24.460Z,42.30
2018-03-22T05:30:52.711Z,42.30
2018-03-22T05:33:21.800Z,42.70
2018-03-22T05:35:50.054Z,42.60
2018-03-22T05:38:18.341Z,42.70
2018-03-22T05:40:46.628Z,43.00
2018-03-22T05:43:14.905Z,42.50
2018-03-22T05:45:43.173Z,42.80
2018-03-22T05:48:11.461Z,42.70
2018-03-22T05:50:40.531Z,43.70
2018-03-22T05:53:08.834Z,43.60
2018-03-22T05:55:37.156Z,42.90
2018-03-22T05:58:05.435Z,43.50
2018-03-22T06:00:33.758Z,43.20
2018-03-22T06:03:02.933Z,43.00
2018-03-22T06:05:31.215Z,42.70
2018-03-22T06:07:59.519Z,43.00
2018-03-22T06:10:28.547Z,43.30
2018-03-22T06:12:56.862Z,43.20
2018-03-22T06:15:25.128Z,42.90
2018-03-22T06:17:53.431Z,42.80
2018-03-22T06:20:21.757Z,43.10
2018-03-22T06:22:50.044Z,42.90
2018-03-22T06:25:18.287Z,42.70
2018-03-22T06:27:46.546Z,43.00
2018-03-22T06:30:15.561Z,43.20
2018-03-22T06:32:43.880Z,42.50
2018-03-22T06:35:12.178Z,42.90
2018-03-22T06:37:40.469Z,43.00
2018-03-22T06:40:08.784Z,42.70
2018-03-22T06:42:37.083Z,42.50
2018-03-22T06:45:05.345Z,42.90
2018-03-22T06:47:33.592Z,42.90
2018-03-22T06:50:02.629Z,43.00
2018-03-22T06:52:30.882Z,42.90
2018-03-22T06:54:59.150Z,42.90
2018-03-22T06:57:28.212Z,42.90
2018-03-22T06:59:56.533Z,42.90
2018-03-22T07:02:24.817Z,42.80
2018-03-22T07:04:53.077Z,42.90
2018-03-22T07:07:21.387Z,42.40
2018-03-22T07:09:49.698Z,42.10
2018-03-22T07:12:18.001Z,42.20
2018-03-22T07:14:47.067Z,41.90
2018-03-22T07:17:15.398Z,41.90
2018-03-22T07:19:43.678Z,41.90
2018-03-22T07:22:11.964Z,41.70
2018-03-22T07:24:40.252Z,42.20
2018-03-22T07:27:08.545Z,42.80
2018-03-22T07:29:36.795Z,42.60
2018-03-22T07:32:05.035Z,42.40
2018-03-22T07:34:34.094Z,41.80
2018-03-22T07:37:02.337Z,41.80
2018-03-22T07:39:30.622Z,41.40
2018-03-22T07:41:58.859Z,41.60
2018-03-22T07:44:32.980Z,41.40
2018-03-22T07:47:01.260Z,40.90
2018-03-22T07:49:29.515Z,41.10
2018-03-22T07:51:58.606Z,41.00
2018-03-22T07:54:26.860Z,40.90
2018-03-22T07:56:55.137Z,40.50
2018-03-22T07:59:23.394Z,40.00
2018-03-22T08:01:51.647Z,40.40
2018-03-22T08:04:19.947Z,40.20
2018-03-22T08:06:48.226Z,40.20
2018-03-22T08:09:16.479Z,40.20
2018-03-22T08:11:44.768Z,39.40
2018-03-22T08:14:13.027Z,39.90
2018-03-22T08:16:41.318Z,40.00
2018-03-22T08:19:09.591Z,40.00
2018-03-22T08:21:37.868Z,40.60
2018-03-22T08:24:06.263Z,39.90
2018-03-22T08:26:34.556Z,38.60
2018-03-22T08:29:02.857Z,38.60
2018-03-22T08:31:31.132Z,39.40
2018-03-22T08:33:59.387Z,39.70
2018-03-22T08:36:27.679Z,39.10
2018-03-22T08:38:55.917Z,39.00
2018-03-22T08:41:24.231Z,38.40
2018-03-22T08:43:52.445Z,38.90
2018-03-22T08:46:20.741Z,38.40
2018-03-22T08:48:49.027Z,38.50
2018-03-22T08:51:17.329Z,38.50
2018-03-22T08:53:45.570Z,39.10
2018-03-22T08:56:13.827Z,38.40
2018-03-22T08:58:42.125Z,38.90
2018-03-22T09:01:10.388Z,39.20
2018-03-22T09:03:38.694Z,38.50
2018-03-22T09:06:06.934Z,38.70
2018-03-22T09:08:35.195Z,37.80
2018-03-22T09:11:04.250Z,37.50
2018-03-22T09:13:32.599Z,37.40
2018-03-22T09:16:00.848Z,37.60
2018-03-22T09:18:29.162Z,37.30
2018-03-22T09:20:57.445Z,37.60
2018-03-22T09:23:25.736Z,37.90
2018-03-22T09:25:54.083Z,37.70
2018-03-22T09:28:22.328Z,38.70
2018-03-22T09:30:51.390Z,38.10
2018-03-22T09:33:19.694Z,38.00
2018-03-22T09:35:48.720Z,37.10
2018-03-22T09:38:17.028Z,37.10
2018-03-22T09:40:45.334Z,37.00
2018-03-22T09:43:13.655Z,36.50
2018-03-22T09:45:41.946Z,36.60
2018-03-22T09:48:10.260Z,37.50
2018-03-22T09:50:38.548Z,36.60
2018-03-22T09:53:07.658Z,37.40
2018-03-22T09:55:35.953Z,37.40
2018-03-22T09:58:04.190Z,36.70
2018-03-22T10:00:33.259Z,36.30
2018-03-22T10:03:01.501Z,36.30
2018-03-22T10:05:29.755Z,36.20
2018-03-22T10:07:58.802Z,37.70
2018-03-22T10:10:27.100Z,37.70
2018-03-22T10:12:55.404Z,38.20
2018-03-22T10:15:24.456Z,37.30
2018-03-22T10:17:52.741Z,37.20
2018-03-22T10:20:21.024Z,35.30
2018-03-22T10:22:49.284Z,35.70
2018-03-22T10:25:17.553Z,35.70
2018-03-22T10:27:45.853Z,36.10
2018-03-22T10:30:14.108Z,37.00
2018-03-22T10:32:42.414Z,35.40
2018-03-22T10:35:10.654Z,36.10
2018-03-22T10:37:38.948Z,35.00
2018-03-22T10:40:07.223Z,36.00
2018-03-22T10:42:35.501Z,34.70
2018-03-22T10:45:03.828Z,36.00
2018-03-22T10:47:32.108Z,34.40
2018-03-22T10:50:00.386Z,35.40
2018-03-22T10:52:28.689Z,34.80
2018-03-22T10:54:56.978Z,33.60
2018-03-22T10:57:25.262Z,34.90
2018-03-22T10:59:53.523Z,35.10
2018-03-22T11:02:27.577Z,33.50
2018-03-22T11:04:56.640Z,35.20
2018-03-22T11:07:24.916Z,35.20
2018-03-22T11:09:53.192Z,35.30
2018-03-22T11:12:21.522Z,34.20
2018-03-22T11:14:50.566Z,33.30
2018-03-22T11:17:18.828Z,33.30
2018-03-22T11:19:47.183Z,34.00
2018-03-22T11:22:16.298Z,35.10
2018-03-22T11:24:44.575Z,34.50
2018-03-22T11:27:12.857Z,33.60
2018-03-22T11:29:41.159Z,33.60
2018-03-22T11:32:09.475Z,33.80
2018-03-22T11:34:38.550Z,33.70
2018-03-22T11:37:06.824Z,33.70
2018-03-22T11:39:35.152Z,35.00
2018-03-22T11:42:03.451Z,34.80
2018-03-22T11:44:31.700Z,35.80
2018-03-22T11:46:59.980Z,35.80
2018-03-22T11:49:28.223Z,36.00
2018-03-22T11:51:57.296Z,36.90
2018-03-22T11:54:25.579Z,36.80
2018-03-22T11:56:53.864Z,36.50
2018-03-22T11:59:22.867Z,36.20
2018-03-22T12:01:51.912Z,37.00
2018-03-22T12:04:20.236Z,37.10
2018-03-22T12:06:49.280Z,37.90
2018-03-22T12:09:17.586Z,37.90
2018-03-22T12:11:45.859Z,38.90
2018-03-22T12:14:14.132Z,39.80
2018-03-22T12:16:42.376Z,40.00
2018-03-22T12:19:10.649Z,40.10
2018-03-22T12:21:38.942Z,40.10
2018-03-22T12:24:07.194Z,40.50
2018-03-22T12:26:35.496Z,40.60
2018-03-22T12:29:03.787Z,40.60
2018-03-22T12:31:32.837Z,40.60
2018-03-22T12:34:01.123Z,40.60
2018-03-22T12:36:29.390Z,40.00
2018-03-22T12:38:57.685Z,39.90
2018-03-22T12:41:25.987Z,39.90
2018-03-22T12:43:54.296Z,40.10
2018-03-22T12:46:22.540Z,40.30
2018-03-22T12:48:50.874Z,41.20
2018-03-22T12:51:19.183Z,41.80
2018-03-22T12:53:47.427Z,42.20
2018-03-22T12:56:15.785Z,42.50
2018-03-22T12:58:44.840Z,42.20
2018-03-22T13:01:13.145Z,42.20
2018-03-22T13:03:41.401Z,41.90
2018-03-22T13:06:09.692Z,41.90
2018-03-22T13:08:37.974Z,41.90
2018-03-22T13:11:06.286Z,41.80
2018-03-22T13:13:34.643Z,41.60
2018-03-22T13:16:03.695Z,41.10
2018-03-22T13:18:31.966Z,41.10
2018-03-22T13:21:00.654Z,40.80
2018-03-22T13:23:28.936Z,41.10
2018-03-22T13:25:57.240Z,41.10
2018-03-22T13:28:25.564Z,41.50
2018-03-22T13:30:53.803Z,41.70
2018-03-22T13:33:22.918Z,42.20
2018-03-22T13:35:51.961Z,42.70
2018-03-22T13:38:20.224Z,42.80
2018-03-22T13:40:48.531Z,43.20
2018-03-22T13:43:16.780Z,43.60
2018-03-22T13:45:45.047Z,44.00
2018-03-22T13:48:13.314Z,44.40
2018-03-22T13:50:41.623Z,45.00
2018-03-22T13:53:09.891Z,45.00
2018-03-22T13:55:38.205Z,46.00
2018-03-22T13:58:06.443Z,47.40
2018-03-22T14:00:34.732Z,47.70
2018-03-22T14:03:03.020Z,47.70
2018-03-22T14:05:31.327Z,47.50
2018-03-22T14:08:00.381Z,49.90
2018-03-22T14:10:28.638Z,49.80
2018-03-22T14:12:57.661Z,51.30
2018-03-22T14:15:25.962Z,51.30
2018-03-22T14:17:55.020Z,50.10
2018-03-22T14:20:23.270Z,50.10
2018-03-22T14:22:51.808Z,51.80
2018-03-22T14:25:20.062Z,51.70
2018-03-22T14:27:48.333Z,52.80
2018-03-22T14:30:16.570Z,53.30
2018-03-22T14:32:44.892Z,53.70
2018-03-22T14:35:13.186Z,56.20
2018-03-22T14:37:41.437Z,55.90
2018-03-22T14:40:09.692Z,56.80
2018-03-22T14:42:37.969Z,57.40
2018-03-22T14:45:06.285Z,57.70
2018-03-22T14:47:34.615Z,55.80
2018-03-22T14:50:03.639Z,56.50
2018-03-22T14:52:31.897Z,56.40
2018-03-22T14:55:00.194Z,55.90
2018-03-22T14:57:28.483Z,54.80
2018-03-22T14:59:56.809Z,54.30
2018-03-22T15:02:25.111Z,54.30
2018-03-22T15:04:53.388Z,54.70
2018-03-22T15:07:22.441Z,54.90
2018-03-22T15:09:51.521Z,55.40
2018-03-22T15:12:20.598Z,55.70
2018-03-22T15:14:48.851Z,55.70
2018-03-22T15:17:17.141Z,58.00
2018-03-22T15:19:45.440Z,56.60
2018-03-22T15:22:13.754Z,57.00
2018-03-22T15:24:42.050Z,56.90
2018-03-22T15:27:10.300Z,56.10
2018-03-22T15:29:38.578Z,59.30
2018-03-22T15:32:06.876Z,58.50
2018-03-22T15:34:35.176Z,57.20
2018-03-22T15:37:03.429Z,56.30
2018-03-22T15:39:31.757Z,56.40
2018-03-22T15:42:00.024Z,58.10
2018-03-22T15:44:28.313Z,57.60
2018-03-22T15:46:56.902Z,58.90
2018-03-22T15:49:25.190Z,58.70
2018-03-22T15:51:54.201Z,56.90
2018-03-22T15:54:22.527Z,56.90
2018-03-22T15:56:50.823Z,57.10
2018-03-22T15:59:19.106Z,57.90
2018-03-22T16:01:48.116Z,58.60
2018-03-22T16:04:17.182Z,56.50
2018-03-22T16:06:45.443Z,56.50
2018-03-22T16:09:13.768Z,57.30
2018-03-22T16:11:42.045Z,57.30
2018-03-22T16:14:10.357Z,57.90
2018-03-22T16:16:39.357Z,57.30
2018-03-22T16:19:08.367Z,59.20
2018-03-22T16:21:36.660Z,59.20
2018-03-22T16:24:04.990Z,57.40
2018-03-22T16:26:33.239Z,57.80
2018-03-22T16:29:01.550Z,58.90
2018-03-22T16:31:29.849Z,58.70
2018-03-22T16:33:58.151Z,59.60
2018-03-22T16:36:26.421Z,58.80
2018-03-22T16:38:54.709Z,60.20
2018-03-22T16:41:23.771Z,58.20
2018-03-22T16:43:52.088Z,58.20
2018-03-22T16:46:21.145Z,56.80
2018-03-22T16:48:49.390Z,56.70
2018-03-22T16:51:17.711Z,57.90
2018-03-22T16:53:46.004Z,57.60
2018-03-22T16:56:15.087Z,56.30
2018-03-22T16:58:43.390Z,56.30
2018-03-22T17:01:11.675Z,56.90
2018-03-22T17:03:40.000Z,56.70
2018-03-22T17:06:08.285Z,56.60
2018-03-22T17:08:36.569Z,55.80
2018-03-22T17:11:04.805Z,57.30
2018-03-22T17:13:33.090Z,56.30
2018-03-22T17:16:01.374Z,56.60
2018-03-22T17:18:29.668Z,57.40
2018-03-22T17:20:57.936Z,57.30
2018-03-22T17:23:26.208Z,58.00
2018-03-22T17:25:55.205Z,57.20
2018-03-22T17:28:23.475Z,57.20
2018-03-22T17:30:51.722Z,58.00
2018-03-22T17:33:19.995Z,57.80
2018-03-22T17:35:48.247Z,57.50
2018-03-22T17:38:16.540Z,59.10
2018-03-22T17:40:44.877Z,58.50
2018-03-22T17:43:13.200Z,57.80
2018-03-22T17:45:41.518Z,57.40
2018-03-22T17:48:09.816Z,58.90
2018-03-22T17:50:38.078Z,58.00
2018-03-22T17:53:06.479Z,57.40
2018-03-22T17:55:35.538Z,58.00
2018-03-22T17:58:03.881Z,57.70
2018-03-22T18:00:32.134Z,58.30
2018-03-22T18:03:01.287Z,57.60
2018-03-22T18:05:29.540Z,57.60
2018-03-22T18:07:57.878Z,57.10
2018-03-22T18:10:26.197Z,57.60
2018-03-22T18:12:54.479Z,57.50
2018-03-22T18:15:22.782Z,57.80
2018-03-22T18:17:51.062Z,57.80
2018-03-22T18:20:19.332Z,57.70
2018-03-22T18:22:47.703Z,58.30
2018-03-22T18:25:15.934Z,57.70
2018-03-22T18:27:44.986Z,57.30
2018-03-22T18:30:14.093Z,58.10
2018-03-22T18:32:42.385Z,58.10
2018-03-22T18:35:11.486Z,57.60
2018-03-22T18:37:40.549Z,58.60
2018-03-22T18:40:08.824Z,58.00
2018-03-22T18:42:37.136Z,58.20
2018-03-22T18:45:05.449Z,57.90
2018-03-22T18:47:33.768Z,58.10
2018-03-22T18:50:02.096Z,58.20
2018-03-22T18:52:30.384Z,57.80
2018-03-22T18:54:58.667Z,57.60
2018-03-22T18:57:26.922Z,59.80
2018-03-22T18:59:55.255Z,58.10
2018-03-22T19:02:23.510Z,58.50
2018-03-22T19:04:51.791Z,58.50
2018-03-22T19:07:20.102Z,58.50
2018-03-22T19:09:48.396Z,58.30
2018-03-22T19:12:17.490Z,58.30
2018-03-22T19:14:46.509Z,58.00
2018-03-22T19:17:14.807Z,57.90
2018-03-22T19:19:43.042Z,58.20
2018-03-22T19:22:12.125Z,57.70
2018-03-22T19:24:41.145Z,57.70
2018-03-22T19:27:09.402Z,57.70
2018-03-22T19:29:37.702Z,58.00
2018-03-22T19:32:05.998Z,58.00
2018-03-22T19:34:34.287Z,58.10
2018-03-22T19:37:02.615Z,58.10
2018-03-22T19:39:30.882Z,58.40
2018-03-22T19:41:59.957Z,58.20
2018-03-22T19:44:28.238Z,58.10
2018-03-22T19:46:56.546Z,57.70
2018-03-22T19:49:24.888Z,58.40
2018-03-22T19:51:53.132Z,57.80
2018-03-22T19:54:21.527Z,58.10
2018-03-22T19:56:49.824Z,58.00
2018-03-22T19:59:18.122Z,57.30
2018-03-22T20:01:47.151Z,57.20
2018-03-22T20:04:15.410Z,57.20
2018-03-22T20:06:43.666Z,57.30
2018-03-22T20:09:12.700Z,58.20
2018-03-22T20:11:41.022Z,58.20
2018-03-22T20:14:09.310Z,58.70
2018-03-22T20:16:38.401Z,57.80
2018-03-22T20:19:06.668Z,57.80
2018-03-22T20:21:34.980Z,57.80
2018-03-22T20:24:03.256Z,58.40
2018-03-22T20:26:32.267Z,58.10
2018-03-22T20:29:00.621Z,58.10
2018-03-22T20:31:29.701Z,58.80
2018-03-22T20:33:57.975Z,58.80
2018-03-22T20:36:26.219Z,57.90
2018-03-22T20:38:54.492Z,58.20
2018-03-22T20:41:22.734Z,58.50
2018-03-22T20:43:51.070Z,57.90
2018-03-22T20:46:19.361Z,57.90
2018-03-22T20:48:47.652Z,58.30
2018-03-22T20:51:16.718Z,58.60
2018-03-22T20:53:45.052Z,58.60
2018-03-22T20:56:13.342Z,58.00
2018-03-22T20:58:41.635Z,57.70
2018-03-22T21:01:09.991Z,58.30
2018-03-22T21:03:38.266Z,59.30
2018-03-22T21:06:06.580Z,58.50
2018-03-22T21:08:34.924Z,58.80
2018-03-22T21:11:03.240Z,59.30
2018-03-22T21:13:31.541Z,58.60
2018-03-22T21:16:00.639Z,58.30
2018-03-22T21:18:29.712Z,58.70
2018-03-22T21:20:58.032Z,58.60
2018-03-22T21:23:26.379Z,58.70
2018-03-22T21:25:54.669Z,58.50
2018-03-22T21:28:22.937Z,59.30
2018-03-22T21:30:51.988Z,58.80
2018-03-22T21:33:20.296Z,58.90
2018-03-22T21:35:48.595Z,59.20
2018-03-22T21:38:17.698Z,58.50
2018-03-22T21:40:45.966Z,58.40
2018-03-22T21:43:15.001Z,59.90
2018-03-22T21:45:43.324Z,59.80
2018-03-22T21:48:11.563Z,58.50
2018-03-22T21:50:50.641Z,58.30
2018-03-22T21:53:19.674Z,59.10
2018-03-22T21:55:47.977Z,59.10
2018-03-22T21:58:16.221Z,59.10
2018-03-22T22:00:44.523Z,59.40
2018-03-22T22:03:12.870Z,59.50
2018-03-22T22:05:41.175Z,59.00
2018-03-22T22:08:09.435Z,59.50
2018-03-22T22:10:37.707Z,60.40
2018-03-22T22:13:06.121Z,59.50
2018-03-22T22:15:34.687Z,60.20
2018-03-22T22:18:02.981Z,58.90
2018-03-22T22:20:31.281Z,59.50
2018-03-22T22:22:59.615Z,59.60
2018-03-22T22:25:27.888Z,59.30
2018-03-22T22:27:56.156Z,58.40
2018-03-22T22:30:24.710Z,58.90
2018-03-22T22:32:53.792Z,59.20
2018-03-22T22:35:22.814Z,60.30
2018-03-22T22:37:51.121Z,59.60
2018-03-22T22:40:19.402Z,59.40
2018-03-22T22:42:48.498Z,58.90
2018-03-22T22:45:16.774Z,58.90
2018-03-22T22:47:45.076Z,59.30
2018-03-22T22:50:13.318Z,58.80
2018-03-22T22:52:41.626Z,58.80
2018-03-22T22:55:09.873Z,59.60
2018-03-22T22:57:38.131Z,59.00
2018-03-22T23:00:06.437Z,58.60
2018-03-22T23:02:34.812Z,58.90
2018-03-22T23:05:03.147Z,59.00
2018-03-22T23:07:32.146Z,59.60
2018-03-22T23:10:00.481Z,59.60
2018-03-22T23:12:28.774Z,59.10
2018-03-22T23:14:57.056Z,58.90
2018-03-22T23:17:25.370Z,59.20
2018-03-22T23:19:53.664Z,58.80
2018-03-22T23:22:22.127Z,59.10
2018-03-22T23:24:50.390Z,58.60
2018-03-22T23:27:18.638Z,59.40
2018-03-22T23:29:46.942Z,59.80
2018-03-22T23:32:15.194Z,59.10
2018-03-22T23:34:43.499Z,59.50
2018-03-22T23:37:11.792Z,59.50
2018-03-22T23:39:40.048Z,59.00
2018-03-22T23:42:08.307Z,59.10
2018-03-22T23:44:37.316Z,59.10
2018-03-22T23:47:05.654Z,59.00
2018-03-22T23:49:33.941Z,59.30
2018-03-22T23:52:02.180Z,59.40
2018-03-22T23:54:30.532Z,59.80
2018-03-22T23:56:58.806Z,60.30
2018-03-22T23:59:27.061Z,59.70
